createdAt,value
2023-07-24T00:01:55.091Z,2.75
2023-07-24T00:04:21.938Z,2.03
2023-07-24T00:06:48.745Z,2.90
2023-07-24T00:09:15.738Z,2.42
2023-07-24T00:11:42.629Z,2.22
2023-07-24T00:14:09.513Z,2.33
2023-07-24T00:16:36.362Z,2.13
2023-07-24T00:19:03.308Z,2.20
2023-07-24T00:21:30.131Z,2.30
2023-07-24T00:23:56.921Z,2.30
2023-07-24T00:26:23.788Z,2.60
2023-07-24T00:28:50.606Z,2.70
2023-07-24T00:31:19.847Z,2.25
2023-07-24T00:33:46.712Z,2.58
2023-07-24T00:36:13.559Z,2.70
2023-07-24T00:38:41.020Z,2.10
2023-07-24T00:41:07.838Z,2.22
2023-07-24T00:43:34.698Z,2.13
2023-07-24T00:46:02.447Z,2.38
2023-07-24T00:48:29.709Z,1.90
2023-07-24T00:50:57.635Z,2.30
2023-07-24T00:53:24.750Z,2.00
2023-07-24T00:55:51.673Z,2.47
2023-07-24T00:58:20.321Z,1.98
2023-07-24T01:00:47.183Z,2.47
2023-07-24T01:03:14.428Z,2.40
2023-07-24T01:05:44.322Z,2.28
2023-07-24T01:08:11.207Z,2.25
2023-07-24T01:10:38.088Z,2.35
2023-07-24T01:13:18.902Z,2.42
2023-07-24T01:15:59.680Z,2.05
2023-07-24T01:18:30.893Z,2.10
2023-07-24T01:21:01.710Z,2.45
2023-07-24T01:24:14.809Z,2.28
2023-07-24T01:26:41.868Z,2.30
2023-07-24T01:29:08.699Z,2.08
2023-07-24T01:31:35.523Z,1.88
2023-07-24T01:34:02.428Z,2.33
2023-07-24T01:36:29.558Z,2.63
2023-07-24T01:38:57.757Z,2.42
2023-07-24T01:41:25.889Z,2.13
2023-07-24T01:43:52.736Z,2.40
2023-07-24T01:46:19.596Z,2.03
2023-07-24T01:48:47.608Z,2.28
2023-07-24T01:51:14.406Z,2.08
2023-07-24T01:53:41.275Z,2.40
2023-07-24T01:56:08.509Z,1.98
2023-07-24T01:58:35.316Z,2.05
2023-07-24T02:01:03.352Z,1.85
2023-07-24T02:03:30.259Z,2.17
2023-07-24T02:05:57.077Z,1.75
2023-07-24T02:08:23.913Z,2.38
2023-07-24T02:10:51.906Z,1.70
2023-07-24T02:13:18.747Z,1.95
2023-07-24T02:15:45.559Z,2.20
2023-07-24T02:18:12.326Z,1.75
2023-07-24T02:20:39.105Z,1.85
2023-07-24T02:23:05.881Z,2.20
2023-07-24T02:25:32.687Z,1.70
2023-07-24T02:27:59.547Z,2.25
2023-07-24T02:30:26.312Z,2.10
2023-07-24T02:32:53.090Z,1.80
2023-07-24T02:35:19.849Z,1.67
2023-07-24T02:37:46.635Z,2.22
2023-07-24T02:40:13.840Z,2.10
2023-07-24T02:42:40.703Z,1.67
2023-07-24T02:45:12.358Z,2.20
2023-07-24T02:47:39.216Z,1.83
2023-07-24T02:50:06.638Z,2.08
2023-07-24T02:52:33.427Z,2.60
2023-07-24T02:55:00.277Z,1.90
2023-07-24T02:57:27.067Z,2.03
2023-07-24T02:59:53.801Z,2.15
2023-07-24T03:02:20.757Z,2.10
2023-07-24T03:04:47.737Z,2.58
2023-07-24T03:07:14.556Z,2.03
2023-07-24T03:09:41.380Z,2.10
2023-07-24T03:12:08.493Z,2.38
2023-07-24T03:14:35.310Z,2.28
2023-07-24T03:17:03.844Z,2.10
2023-07-24T03:19:30.655Z,2.53
2023-07-24T03:21:57.537Z,2.17
2023-07-24T03:24:24.655Z,2.78
2023-07-24T03:26:51.531Z,2.85
2023-07-24T03:29:18.314Z,3.10
2023-07-24T03:31:46.668Z,2.78
2023-07-24T03:34:13.507Z,2.92
2023-07-24T03:36:42.589Z,3.00
2023-07-24T03:39:12.288Z,2.72
2023-07-24T03:41:40.226Z,2.80
2023-07-24T03:44:07.009Z,3.25
2023-07-24T03:46:34.649Z,3.05
2023-07-24T03:49:01.757Z,3.83
2023-07-24T03:51:28.575Z,4.00
2023-07-24T03:53:55.384Z,3.20
2023-07-24T03:56:22.179Z,3.15
2023-07-24T03:58:49.038Z,3.72
2023-07-24T04:01:15.889Z,3.65
2023-07-24T04:03:42.730Z,3.17
2023-07-24T04:06:10.805Z,4.05
2023-07-24T04:08:37.578Z,3.05
2023-07-24T04:11:06.182Z,3.45
2023-07-24T04:13:32.935Z,3.15
2023-07-24T04:16:00.567Z,3.28
2023-07-24T04:18:27.447Z,3.22
2023-07-24T04:20:54.319Z,3.60
2023-07-24T04:23:21.155Z,3.10
2023-07-24T04:25:47.939Z,3.50
2023-07-24T04:28:16.082Z,3.25
2023-07-24T04:30:45.325Z,2.55
2023-07-24T04:33:12.179Z,3.33
2023-07-24T04:35:38.973Z,3.30
2023-07-24T04:38:05.772Z,3.25
2023-07-24T04:40:32.635Z,3.30
2023-07-24T04:42:59.513Z,2.95
2023-07-24T04:45:26.350Z,3.15
2023-07-24T04:47:53.602Z,3.80
2023-07-24T04:50:20.469Z,3.30
2023-07-24T04:52:47.240Z,4.07
2023-07-24T04:55:14.126Z,4.15
2023-07-24T04:57:40.878Z,4.10
2023-07-24T05:00:09.978Z,3.75
2023-07-24T05:02:36.902Z,3.95
2023-07-24T05:05:04.014Z,4.20
2023-07-24T05:07:30.826Z,3.70
2023-07-24T05:09:57.855Z,3.83
2023-07-24T05:12:24.871Z,3.85
2023-07-24T05:14:51.823Z,3.97
2023-07-24T05:17:19.144Z,3.83
2023-07-24T05:19:45.982Z,4.00
2023-07-24T05:22:12.818Z,4.05
2023-07-24T05:24:39.674Z,3.83
2023-07-24T05:27:07.061Z,4.15
2023-07-24T05:29:34.180Z,3.88
2023-07-24T05:32:01.053Z,3.47
2023-07-24T05:34:27.936Z,3.63
2023-07-24T05:36:55.162Z,4.13
2023-07-24T05:39:22.024Z,3.63
2023-07-24T05:41:49.706Z,4.30
2023-07-24T05:44:16.523Z,4.05
2023-07-24T05:46:44.483Z,4.40
2023-07-24T05:49:12.293Z,3.70
2023-07-24T05:51:39.057Z,3.33
2023-07-24T05:54:05.895Z,3.28
2023-07-24T05:56:33.005Z,3.70
2023-07-24T05:58:59.950Z,4.03
2023-07-24T06:01:26.743Z,3.70
2023-07-24T06:03:53.592Z,3.45
2023-07-24T06:06:20.566Z,3.42
2023-07-24T06:08:48.457Z,3.70
2023-07-24T06:11:15.307Z,2.88
2023-07-24T06:13:42.126Z,3.47
2023-07-24T06:16:08.928Z,2.75
2023-07-24T06:18:36.106Z,3.05
2023-07-24T06:21:02.984Z,3.53
2023-07-24T06:23:30.866Z,2.90
2023-07-24T06:25:57.636Z,3.55
2023-07-24T06:28:24.405Z,3.15
2023-07-24T06:30:55.021Z,3.25
2023-07-24T06:33:25.098Z,3.30
2023-07-24T06:35:52.273Z,3.17
2023-07-24T06:38:19.204Z,3.25
2023-07-24T06:40:45.979Z,3.25
2023-07-24T06:43:12.899Z,3.28
2023-07-24T06:45:39.793Z,3.40
2023-07-24T06:48:06.771Z,3.40
2023-07-24T06:50:33.619Z,2.97
2023-07-24T06:53:00.409Z,3.80
2023-07-24T06:55:29.367Z,3.45
2023-07-24T06:57:56.224Z,3.28
2023-07-24T07:00:23.157Z,2.80
2023-07-24T07:02:50.021Z,4.88
2023-07-24T07:05:16.968Z,3.08
2023-07-24T07:07:43.872Z,3.78
2023-07-24T07:10:10.790Z,3.20
2023-07-24T07:12:37.669Z,3.47
2023-07-24T07:15:05.093Z,4.43
2023-07-24T07:17:31.978Z,3.88
2023-07-24T07:19:58.896Z,3.92
2023-07-24T07:22:25.716Z,3.33
2023-07-24T07:24:52.757Z,3.50
2023-07-24T07:27:19.758Z,3.53
2023-07-24T07:29:46.586Z,3.20
2023-07-24T07:32:13.474Z,3.70
2023-07-24T07:34:40.499Z,2.80
2023-07-24T07:37:08.169Z,3.17
2023-07-24T07:39:35.055Z,2.63
2023-07-24T07:42:16.419Z,4.20
2023-07-24T07:44:44.608Z,3.05
2023-07-24T07:47:11.454Z,2.80
2023-07-24T07:49:38.293Z,3.15
2023-07-24T07:52:08.757Z,2.60
2023-07-24T07:54:35.632Z,3.13
2023-07-24T07:57:02.521Z,2.63
2023-07-24T07:59:29.398Z,2.70
2023-07-24T08:01:56.161Z,3.28
2023-07-24T08:04:24.083Z,3.05
2023-07-24T08:06:50.893Z,3.08
2023-07-24T08:09:18.650Z,3.97
2023-07-24T08:11:45.476Z,3.13
2023-07-24T08:14:12.259Z,3.05
2023-07-24T08:16:39.237Z,4.10
2023-07-24T08:19:06.105Z,3.42
2023-07-24T08:21:32.928Z,3.10
2023-07-24T08:24:03.551Z,3.03
2023-07-24T08:26:30.569Z,3.30
2023-07-24T08:28:57.531Z,3.17
2023-07-24T08:31:24.418Z,3.40
2023-07-24T08:33:51.326Z,3.15
2023-07-24T08:36:18.078Z,3.67
2023-07-24T08:38:44.862Z,3.30
2023-07-24T08:41:14.103Z,4.10
2023-07-24T08:43:43.782Z,3.55
2023-07-24T08:46:11.388Z,3.40
2023-07-24T08:48:42.432Z,3.55
2023-07-24T08:51:16.977Z,3.00
2023-07-24T08:53:44.826Z,2.40
2023-07-24T08:56:20.483Z,3.60
2023-07-24T08:58:47.235Z,2.88
2023-07-24T09:01:14.661Z,2.78
2023-07-24T09:03:41.680Z,3.17
2023-07-24T09:06:09.086Z,4.72
2023-07-24T09:08:44.388Z,2.83
2023-07-24T09:11:14.677Z,3.00
2023-07-24T09:13:46.256Z,2.85
2023-07-24T09:16:27.978Z,3.28
2023-07-24T09:21:32.723Z,2.60
2023-07-24T09:24:14.685Z,3.58
2023-07-24T09:26:58.487Z,3.60
2023-07-24T09:29:33.328Z,2.92
2023-07-24T09:32:01.074Z,3.42
2023-07-24T09:34:28.123Z,3.25
2023-07-24T09:36:55.063Z,4.00
2023-07-24T09:39:29.327Z,4.15
2023-07-24T09:42:07.414Z,4.28
2023-07-24T09:44:34.311Z,4.22
2023-07-24T09:47:27.255Z,3.83
2023-07-24T09:49:49.876Z,3.20
2023-07-24T09:52:20.899Z,4.07
2023-07-24T09:55:00.624Z,3.15
2023-07-24T09:57:29.725Z,3.40
2023-07-24T09:59:59.566Z,3.55
2023-07-24T10:02:27.323Z,3.33
2023-07-24T10:04:56.340Z,3.05
2023-07-24T10:07:25.811Z,2.75
2023-07-24T10:09:54.291Z,3.10
2023-07-24T10:12:22.087Z,2.50
2023-07-24T10:14:49.914Z,3.05
2023-07-24T10:17:39.516Z,2.88
2023-07-24T10:20:09.323Z,2.55
2023-07-24T10:22:42.183Z,3.20
2023-07-24T10:25:11.276Z,3.13
2023-07-24T10:27:45.594Z,3.00
2023-07-24T10:30:27.683Z,2.70
2023-07-24T10:33:30.798Z,2.92
2023-07-24T10:36:10.838Z,3.20
2023-07-24T10:38:41.546Z,3.58
2023-07-24T10:41:11.173Z,3.33
2023-07-24T10:44:04.776Z,3.17
2023-07-24T10:46:44.744Z,3.30
2023-07-24T10:49:13.501Z,3.00
2023-07-24T10:51:40.395Z,3.17
2023-07-24T10:54:07.761Z,2.88
2023-07-24T10:56:37.296Z,3.05
2023-07-24T10:59:07.860Z,3.08
2023-07-24T11:01:35.935Z,2.90
2023-07-24T11:04:03.817Z,3.97
2023-07-24T11:06:30.752Z,2.88
2023-07-24T11:09:01.120Z,3.10
2023-07-24T11:11:33.117Z,3.85
2023-07-24T11:14:02.800Z,3.60
2023-07-24T11:16:35.205Z,2.92
2023-07-24T11:19:04.064Z,2.78
2023-07-24T11:21:31.636Z,2.80
2023-07-24T11:23:59.359Z,3.10
2023-07-24T11:26:27.776Z,2.60
2023-07-24T11:28:55.392Z,3.67
2023-07-24T11:31:22.786Z,3.30
2023-07-24T11:33:52.927Z,3.90
2023-07-24T11:36:20.278Z,2.65
2023-07-24T11:38:49.713Z,3.15
2023-07-24T11:41:19.211Z,2.67
2023-07-24T11:43:50.385Z,3.47
2023-07-24T11:46:29.336Z,3.30
2023-07-24T11:48:58.486Z,3.70
2023-07-24T11:51:30.654Z,2.70
2023-07-24T11:54:14.591Z,2.60
2023-07-24T11:56:41.360Z,2.70
2023-07-24T11:59:16.058Z,2.67
2023-07-24T12:01:49.080Z,2.33
2023-07-24T12:04:17.649Z,2.60
2023-07-24T12:06:44.724Z,2.35
2023-07-24T12:09:15.357Z,2.38
2023-07-24T12:12:04.717Z,3.03
2023-07-24T12:14:31.484Z,2.58
2023-07-24T12:17:10.819Z,2.67
2023-07-24T12:19:40.199Z,3.30
2023-07-24T12:22:08.340Z,2.65
2023-07-24T12:24:35.214Z,4.15
2023-07-24T12:27:02.061Z,3.10
2023-07-24T12:29:28.902Z,4.30
2023-07-24T12:31:55.806Z,2.30
2023-07-24T12:34:22.655Z,2.42
2023-07-24T12:36:49.425Z,2.05
2023-07-24T12:39:16.256Z,2.30
2023-07-24T12:41:43.118Z,2.22
2023-07-24T12:44:09.968Z,3.15
2023-07-24T12:46:36.751Z,4.22
2023-07-24T12:49:03.787Z,4.70
2023-07-24T12:51:30.654Z,4.78
2023-07-24T12:54:11.679Z,5.35
2023-07-24T12:56:47.647Z,5.63
2023-07-24T12:59:14.583Z,5.60
2023-07-24T13:01:41.635Z,5.18
2023-07-24T13:04:10.036Z,5.80
2023-07-24T13:06:37.115Z,4.68
2023-07-24T13:09:05.320Z,4.63
2023-07-24T13:11:32.751Z,2.83
2023-07-24T13:13:59.694Z,2.92
2023-07-24T13:16:27.895Z,2.35
2023-07-24T13:18:54.967Z,2.25
2023-07-24T13:21:22.179Z,2.50
2023-07-24T13:23:48.970Z,2.10
2023-07-24T13:26:16.801Z,1.90
2023-07-24T13:28:43.649Z,2.65
2023-07-24T13:31:23.507Z,1.83
2023-07-24T13:33:50.390Z,2.10
2023-07-24T13:36:17.226Z,1.83
2023-07-24T13:38:44.067Z,1.83
2023-07-24T13:41:10.891Z,1.40
2023-07-24T13:43:37.842Z,1.73
2023-07-24T13:46:04.866Z,1.60
2023-07-24T13:48:32.053Z,1.52
2023-07-24T13:50:58.989Z,1.58
2023-07-24T13:53:26.272Z,1.77
2023-07-24T13:55:53.250Z,1.42
2023-07-24T13:58:20.080Z,1.58
2023-07-24T14:00:46.937Z,1.30
2023-07-24T14:03:13.797Z,1.52
2023-07-24T14:05:41.712Z,1.58
2023-07-24T14:08:09.767Z,1.30
2023-07-24T14:10:36.630Z,1.52
2023-07-24T14:13:05.056Z,1.38
2023-07-24T14:15:31.871Z,1.58
2023-07-24T14:18:01.217Z,1.30
2023-07-24T14:20:28.025Z,1.00
2023-07-24T14:22:54.845Z,2.08
2023-07-24T14:25:25.218Z,1.00
2023-07-24T14:27:52.032Z,1.30
2023-07-24T14:30:18.941Z,1.33
2023-07-24T14:32:51.769Z,1.55
2023-07-24T14:35:19.191Z,1.30
2023-07-24T14:37:46.004Z,1.40
2023-07-24T14:40:13.213Z,1.52
2023-07-24T14:42:40.063Z,1.10
2023-07-24T14:45:07.895Z,1.13
2023-07-24T14:47:34.860Z,1.55
2023-07-24T14:50:01.699Z,1.23
2023-07-24T14:52:28.484Z,1.20
2023-07-24T14:54:55.326Z,1.02
2023-07-24T14:57:25.482Z,1.38
2023-07-24T14:59:53.864Z,0.93
2023-07-24T15:02:20.876Z,1.00
2023-07-24T15:04:47.699Z,1.10
2023-07-24T15:07:14.788Z,1.35
2023-07-24T15:09:43.534Z,1.15
2023-07-24T15:12:10.614Z,0.88
2023-07-24T15:14:37.467Z,1.00
2023-07-24T15:17:04.689Z,1.08
2023-07-24T15:19:31.559Z,0.93
2023-07-24T15:21:58.363Z,1.00
2023-07-24T15:24:25.230Z,0.82
2023-07-24T15:26:52.034Z,0.90
2023-07-24T15:29:20.309Z,1.00
2023-07-24T15:31:47.548Z,1.40
2023-07-24T15:34:14.394Z,1.00
2023-07-24T15:36:41.235Z,0.80
2023-07-24T15:39:08.150Z,0.88
2023-07-24T15:41:35.187Z,0.88
2023-07-24T15:44:02.082Z,0.80
2023-07-24T15:46:30.351Z,0.70
2023-07-24T15:48:58.175Z,0.82
2023-07-24T15:51:27.481Z,0.68
2023-07-24T15:53:54.819Z,0.60
2023-07-24T15:56:22.088Z,0.82
2023-07-24T15:58:52.601Z,0.60
2023-07-24T16:01:19.729Z,0.50
2023-07-24T16:03:46.655Z,0.40
2023-07-24T16:06:13.765Z,0.90
2023-07-24T16:08:40.543Z,0.60
2023-07-24T16:11:09.120Z,0.43
2023-07-24T16:13:45.183Z,0.50
2023-07-24T16:16:15.405Z,0.50
2023-07-24T16:18:42.904Z,0.50
2023-07-24T16:21:09.935Z,0.47
2023-07-24T16:23:36.979Z,0.55
2023-07-24T16:26:03.932Z,0.40
2023-07-24T16:28:30.907Z,0.60
2023-07-24T16:31:00.355Z,0.60
2023-07-24T16:33:27.311Z,1.35
2023-07-24T16:35:54.379Z,0.73
2023-07-24T16:38:23.301Z,0.90
2023-07-24T16:40:52.268Z,0.60
2023-07-24T16:43:19.346Z,0.60
2023-07-24T16:48:20.349Z,0.85
2023-07-24T16:50:47.560Z,1.90
2023-07-24T16:53:14.406Z,0.63
2023-07-24T16:55:41.305Z,0.80
2023-07-24T16:58:08.237Z,0.90
2023-07-24T17:00:35.364Z,0.85
2023-07-24T17:03:03.415Z,0.73
2023-07-24T17:05:31.119Z,0.80
2023-07-24T17:07:57.903Z,0.80
2023-07-24T17:10:24.770Z,1.15
2023-07-24T17:12:51.693Z,1.63
2023-07-24T17:15:18.576Z,1.00
2023-07-24T17:17:46.274Z,1.13
2023-07-24T17:20:13.537Z,0.70
2023-07-24T17:22:41.461Z,0.90
2023-07-24T17:25:08.906Z,0.80
2023-07-24T17:27:37.845Z,1.00
2023-07-24T17:30:06.470Z,0.70
2023-07-24T17:32:33.354Z,1.63
2023-07-24T17:35:00.320Z,1.88
2023-07-24T17:37:37.430Z,0.70
2023-07-24T17:40:06.458Z,0.82
2023-07-24T17:42:33.286Z,0.80
2023-07-24T17:45:00.148Z,0.70
2023-07-24T17:47:27.077Z,0.70
2023-07-24T17:50:06.438Z,0.90
2023-07-24T17:52:35.511Z,0.43
2023-07-24T17:55:02.533Z,0.65
2023-07-24T17:57:29.736Z,0.50
2023-07-24T17:59:59.452Z,0.55
2023-07-24T18:02:26.256Z,0.90
2023-07-24T18:04:53.156Z,0.60
2023-07-24T18:07:19.957Z,0.50
2023-07-24T18:09:46.878Z,0.68
2023-07-24T18:12:14.278Z,0.70
2023-07-24T18:14:42.770Z,0.60
2023-07-24T18:17:09.660Z,0.80
2023-07-24T18:19:36.509Z,0.80
2023-07-24T18:22:03.590Z,1.33
2023-07-24T18:24:30.533Z,1.20
2023-07-24T18:26:57.462Z,1.35
2023-07-24T18:29:24.327Z,1.50
2023-07-24T18:31:51.182Z,1.27
2023-07-24T18:34:18.079Z,0.82
2023-07-24T18:36:44.863Z,1.33
2023-07-24T18:39:14.725Z,0.73
2023-07-24T18:41:41.939Z,0.90
2023-07-24T18:44:10.237Z,1.17
2023-07-24T18:46:36.990Z,1.00
2023-07-24T18:49:03.997Z,1.10
2023-07-24T18:51:31.086Z,1.00
2023-07-24T18:54:01.469Z,1.00
2023-07-24T18:56:29.480Z,1.10
2023-07-24T18:58:56.291Z,0.70
2023-07-24T19:01:26.118Z,0.70
2023-07-24T19:03:53.197Z,0.63
2023-07-24T19:06:21.766Z,0.70
2023-07-24T19:08:49.689Z,1.25
2023-07-24T19:11:18.779Z,0.77
2023-07-24T19:13:45.720Z,0.60
2023-07-24T19:16:12.516Z,0.98
2023-07-24T19:18:40.985Z,0.75
2023-07-24T19:21:07.923Z,0.80
2023-07-24T19:23:34.766Z,0.80
2023-07-24T19:26:02.370Z,1.48
2023-07-24T19:28:29.526Z,0.88
2023-07-24T19:30:59.505Z,0.70
2023-07-24T19:33:27.137Z,0.90
2023-07-24T19:36:19.225Z,0.80
2023-07-24T19:38:46.222Z,0.60
2023-07-24T19:41:15.234Z,0.88
2023-07-24T19:43:42.141Z,0.65
2023-07-24T19:46:14.495Z,0.90
2023-07-24T19:48:41.571Z,0.80
2023-07-24T19:51:08.441Z,0.75
2023-07-24T19:53:35.332Z,0.80
2023-07-24T19:56:02.758Z,0.80
2023-07-24T19:58:33.874Z,1.70
2023-07-24T20:01:01.447Z,1.00
2023-07-24T20:03:29.398Z,1.10
2023-07-24T20:05:57.809Z,1.00
2023-07-24T20:08:27.830Z,0.95
2023-07-24T20:10:58.429Z,1.17
2023-07-24T20:13:25.699Z,0.82
2023-07-24T20:15:52.771Z,1.00
2023-07-24T20:18:19.723Z,0.70
2023-07-24T20:20:49.187Z,0.90
2023-07-24T20:23:17.403Z,0.88
2023-07-24T20:25:49.653Z,1.20
2023-07-24T20:28:18.340Z,0.80
2023-07-24T20:30:46.581Z,0.82
2023-07-24T20:33:16.072Z,0.95
2023-07-24T20:35:45.890Z,0.80
2023-07-24T20:38:32.457Z,0.90
2023-07-24T20:40:59.870Z,1.02
2023-07-24T20:43:26.651Z,0.73
2023-07-24T20:45:53.773Z,1.63
2023-07-24T20:48:27.765Z,0.95
2023-07-24T20:50:54.563Z,0.95
2023-07-24T20:53:21.419Z,0.80
2023-07-24T20:55:48.565Z,1.00
2023-07-24T20:58:15.414Z,0.93
2023-07-24T21:00:42.178Z,0.90
2023-07-24T21:03:09.068Z,1.10
2023-07-24T21:05:38.046Z,0.88
2023-07-24T21:08:07.705Z,1.02
2023-07-24T21:10:34.555Z,1.00
2023-07-24T21:13:02.390Z,0.90
2023-07-24T21:15:29.228Z,1.00
2023-07-24T21:17:56.115Z,0.90
2023-07-24T21:20:22.905Z,1.00
2023-07-24T21:22:50.828Z,0.82
2023-07-24T21:25:18.740Z,1.40
2023-07-24T21:27:45.911Z,0.95
2023-07-24T21:30:13.417Z,1.00
2023-07-24T21:32:40.314Z,1.00
2023-07-24T21:35:07.610Z,1.10
2023-07-24T21:37:34.375Z,2.55
2023-07-24T21:40:01.196Z,2.22
2023-07-24T21:42:27.968Z,1.67
2023-07-24T21:44:54.837Z,1.40
2023-07-24T21:47:21.799Z,1.45
2023-07-24T21:49:48.594Z,1.10
2023-07-24T21:52:15.388Z,1.23
2023-07-24T21:54:42.263Z,1.83
2023-07-24T21:57:10.478Z,1.17
2023-07-24T21:59:37.505Z,0.98
2023-07-24T22:02:04.760Z,1.20
2023-07-24T22:04:31.650Z,1.40
2023-07-24T22:06:59.582Z,1.50
2023-07-24T22:09:26.423Z,1.35
2023-07-24T22:11:53.222Z,1.48
2023-07-24T22:14:20.293Z,1.25
2023-07-24T22:16:47.285Z,1.10
2023-07-24T22:19:15.944Z,0.98
2023-07-24T22:21:42.710Z,1.00
2023-07-24T22:24:09.494Z,1.10
2023-07-24T22:26:36.337Z,1.40
2023-07-24T22:29:04.768Z,1.02
2023-07-24T22:31:31.839Z,1.08
2023-07-24T22:33:58.862Z,1.08
2023-07-24T22:36:25.641Z,0.93
2023-07-24T22:38:52.511Z,1.15
2023-07-24T22:41:19.496Z,0.90
2023-07-24T22:43:46.355Z,1.30
2023-07-24T22:46:13.210Z,1.25
2023-07-24T22:48:40.068Z,2.65
2023-07-24T22:51:06.927Z,1.10
2023-07-24T22:53:33.769Z,1.00
2023-07-24T22:56:00.628Z,1.10
2023-07-24T22:58:27.805Z,0.90
2023-07-24T23:00:54.807Z,1.00
2023-07-24T23:03:22.336Z,1.13
2023-07-24T23:05:50.607Z,1.63
2023-07-24T23:08:17.476Z,1.50
2023-07-24T23:10:44.299Z,1.20
2023-07-24T23:13:11.092Z,1.20
2023-07-24T23:15:37.938Z,1.05
2023-07-24T23:18:04.937Z,1.05
2023-07-24T23:20:31.760Z,0.82
2023-07-24T23:22:58.659Z,1.15
2023-07-24T23:25:25.410Z,1.17
2023-07-24T23:27:52.214Z,1.20
2023-07-24T23:30:21.225Z,1.20
2023-07-24T23:32:48.256Z,1.25
2023-07-24T23:35:15.256Z,1.25
2023-07-24T23:37:42.056Z,1.23
2023-07-24T23:40:09.481Z,1.15
2023-07-24T23:42:36.376Z,1.00
2023-07-24T23:45:03.313Z,0.90
2023-07-24T23:47:30.289Z,1.05
2023-07-24T23:49:59.050Z,1.50
2023-07-24T23:52:25.914Z,1.38
2023-07-24T23:54:57.941Z,0.88
2023-07-24T23:57:28.714Z,1.10
2023-07-24T23:59:55.571Z,1.10
